createdAt,value
2018-10-02T00:01:46.555Z,100.00
2018-10-02T00:04:15.635Z,100.00
2018-10-02T00:06:44.616Z,100.00
2018-10-02T00:09:14.421Z,100.00
2018-10-02T00:11:48.557Z,100.00
2018-10-02T00:14:25.083Z,100.00
2018-10-02T00:16:54.183Z,100.00
2018-10-02T00:19:23.157Z,100.00
2018-10-02T00:21:52.209Z,100.00
2018-10-02T00:24:22.015Z,100.00
2018-10-02T00:26:50.999Z,100.00
2018-10-02T00:29:20.155Z,100.00
2018-10-02T00:31:49.280Z,100.00
2018-10-02T00:34:18.347Z,100.00
2018-10-02T00:36:47.384Z,100.00
2018-10-02T00:39:16.383Z,100.00
2018-10-02T00:41:45.447Z,100.00
2018-10-02T00:44:14.463Z,100.00
2018-10-02T00:46:43.443Z,100.00
2018-10-02T00:49:13.384Z,100.00
2018-10-02T00:51:42.391Z,100.00
2018-10-02T00:54:11.355Z,100.00
2018-10-02T00:56:40.379Z,100.00
2018-10-02T00:59:09.381Z,100.00
2018-10-02T01:01:38.393Z,100.00
2018-10-02T01:04:07.513Z,100.00
2018-10-02T01:06:36.468Z,100.00
2018-10-02T01:09:08.317Z,100.00
2018-10-02T01:11:37.352Z,100.00
2018-10-02T01:14:06.464Z,100.00
2018-10-02T01:16:35.554Z,100.00
2018-10-02T01:19:04.745Z,100.00
2018-10-02T01:21:34.053Z,100.00
2018-10-02T01:24:03.165Z,100.00
2018-10-02T01:26:32.149Z,100.00
2018-10-02T01:29:01.616Z,100.00
2018-10-02T01:31:30.752Z,100.00
2018-10-02T01:33:59.847Z,100.00
2018-10-02T01:36:28.860Z,100.00
2018-10-02T01:38:58.165Z,100.00
2018-10-02T01:41:27.229Z,100.00
2018-10-02T01:43:56.301Z,100.00
2018-10-02T01:46:25.262Z,100.00
2018-10-02T01:48:54.287Z,100.00
2018-10-02T01:51:23.353Z,100.00
2018-10-02T01:53:52.354Z,100.00
2018-10-02T01:56:21.531Z,100.00
2018-10-02T01:58:50.575Z,100.00
2018-10-02T02:01:19.627Z,100.00
2018-10-02T02:03:48.580Z,100.00
2018-10-02T02:06:17.639Z,100.00
2018-10-02T02:08:46.622Z,100.00
2018-10-02T02:11:15.797Z,100.00
2018-10-02T02:13:45.012Z,100.00
2018-10-02T02:16:14.030Z,100.00
2018-10-02T02:18:43.069Z,100.00
2018-10-02T02:21:12.063Z,100.00
2018-10-02T02:23:41.091Z,100.00
2018-10-02T02:26:10.091Z,100.00
2018-10-02T02:28:39.107Z,100.00
2018-10-02T02:31:08.061Z,100.00
2018-10-02T02:33:37.099Z,100.00
2018-10-02T02:36:06.175Z,100.00
2018-10-02T02:38:35.434Z,100.00
2018-10-02T02:41:04.943Z,100.00
2018-10-02T02:43:34.381Z,100.00
2018-10-02T02:46:03.743Z,100.00
2018-10-02T02:48:38.771Z,100.00
2018-10-02T02:51:13.389Z,100.00
2018-10-02T02:53:42.631Z,100.00
2018-10-02T02:56:11.598Z,100.00
2018-10-02T02:58:40.649Z,100.00
2018-10-02T03:01:09.808Z,100.00
2018-10-02T03:03:38.871Z,100.00
2018-10-02T03:06:08.019Z,100.00
2018-10-02T03:08:37.054Z,100.00
2018-10-02T03:11:06.188Z,100.00
2018-10-02T03:13:35.341Z,100.00
2018-10-02T03:16:04.312Z,100.00
2018-10-02T03:18:33.359Z,100.00
2018-10-02T03:21:03.181Z,100.00
2018-10-02T03:23:33.070Z,100.00
2018-10-02T03:26:02.820Z,100.00
2018-10-02T03:28:31.872Z,100.00
2018-10-02T03:31:00.855Z,100.00
2018-10-02T03:33:29.888Z,100.00
2018-10-02T03:35:58.885Z,100.00
2018-10-02T03:38:27.877Z,100.00
2018-10-02T03:40:56.924Z,100.00
2018-10-02T03:43:26.247Z,100.00
2018-10-02T03:45:55.284Z,100.00
2018-10-02T03:48:24.333Z,100.00
2018-10-02T03:50:53.300Z,100.00
2018-10-02T03:53:23.240Z,100.00
2018-10-02T03:55:52.265Z,100.00
2018-10-02T03:58:21.289Z,100.00
2018-10-02T04:00:50.258Z,100.00
2018-10-02T04:03:19.293Z,100.00
2018-10-02T04:05:48.835Z,100.00
2018-10-02T04:08:17.938Z,100.00
2018-10-02T04:10:46.907Z,100.00
2018-10-02T04:13:16.040Z,100.00
2018-10-02T04:15:45.121Z,100.00
2018-10-02T04:18:14.963Z,100.00
2018-10-02T04:20:44.563Z,100.00
2018-10-02T04:23:13.913Z,100.00
2018-10-02T04:25:42.989Z,100.00
2018-10-02T04:28:12.041Z,100.00
2018-10-02T04:30:41.161Z,100.00
2018-10-02T04:33:10.163Z,100.00
2018-10-02T04:35:39.172Z,100.00
2018-10-02T04:38:08.250Z,100.00
2018-10-02T04:40:37.275Z,100.00
2018-10-02T04:43:06.417Z,100.00
2018-10-02T04:45:35.495Z,100.00
2018-10-02T04:48:05.558Z,100.00
2018-10-02T04:50:34.585Z,100.00
2018-10-02T04:53:03.626Z,100.00
2018-10-02T04:55:32.658Z,100.00
2018-10-02T04:58:01.659Z,100.00
2018-10-02T05:00:30.681Z,100.00
2018-10-02T05:02:59.730Z,100.00
2018-10-02T05:05:28.759Z,100.00
2018-10-02T05:07:57.862Z,100.00
2018-10-02T05:10:26.833Z,100.00
2018-10-02T05:12:55.867Z,100.00
2018-10-02T05:15:24.980Z,100.00
2018-10-02T05:17:54.340Z,100.00
2018-10-02T05:20:23.365Z,100.00
2018-10-02T05:22:52.770Z,100.00
2018-10-02T05:25:21.881Z,100.00
2018-10-02T05:27:50.939Z,100.00
2018-10-02T05:30:20.046Z,100.00
2018-10-02T05:32:49.061Z,100.00
2018-10-02T05:35:18.795Z,100.00
2018-10-02T05:37:48.182Z,100.00
2018-10-02T05:40:17.599Z,100.00
2018-10-02T05:42:47.672Z,100.00
2018-10-02T05:45:17.176Z,100.00
2018-10-02T05:47:46.648Z,100.00
2018-10-02T05:50:16.406Z,100.00
2018-10-02T05:52:45.787Z,100.00
2018-10-02T05:55:15.089Z,100.00
2018-10-02T05:57:44.449Z,100.00
2018-10-02T06:00:13.913Z,100.00
2018-10-02T06:02:43.366Z,100.00
2018-10-02T06:05:12.818Z,100.00
2018-10-02T06:07:42.202Z,100.00
2018-10-02T06:10:11.736Z,100.00
2018-10-02T06:12:40.854Z,100.00
2018-10-02T06:15:09.941Z,100.00
2018-10-02T06:17:39.009Z,100.00
2018-10-02T06:20:08.172Z,100.00
2018-10-02T06:22:37.290Z,100.00
2018-10-02T06:25:06.468Z,100.00
2018-10-02T06:27:36.287Z,100.00
2018-10-02T06:30:05.855Z,100.00
2018-10-02T06:32:34.866Z,100.00
2018-10-02T06:35:04.057Z,100.00
2018-10-02T06:37:33.079Z,100.00
2018-10-02T06:40:02.148Z,100.00
2018-10-02T06:42:31.693Z,99.17
2018-10-02T06:45:01.166Z,97.05
2018-10-02T06:47:30.584Z,96.37
2018-10-02T06:50:00.200Z,93.88
2018-10-02T06:52:29.572Z,100.00
2018-10-02T06:54:58.460Z,98.79
2018-10-02T06:57:28.036Z,99.82
2018-10-02T06:59:57.383Z,95.22
2018-10-02T07:02:27.513Z,95.80
2018-10-02T07:04:56.812Z,100.00
2018-10-02T07:07:25.884Z,100.00
2018-10-02T07:09:54.986Z,98.90
2018-10-02T07:12:24.208Z,99.16
2018-10-02T07:14:53.584Z,99.41
2018-10-02T07:17:22.686Z,100.00
2018-10-02T07:19:51.719Z,100.00
2018-10-02T07:22:21.491Z,100.00
2018-10-02T07:24:50.934Z,88.21
2018-10-02T07:27:20.095Z,94.38
2018-10-02T07:29:49.013Z,96.43
2018-10-02T07:32:18.019Z,96.38
2018-10-02T07:34:47.034Z,92.64
2018-10-02T07:37:16.128Z,92.32
2018-10-02T07:39:45.157Z,92.25
2018-10-02T07:42:14.509Z,94.84
2018-10-02T07:44:43.627Z,94.57
2018-10-02T07:47:12.656Z,95.49
2018-10-02T07:49:41.640Z,94.93
2018-10-02T07:52:11.023Z,94.39
2018-10-02T07:54:40.099Z,92.66
2018-10-02T07:57:09.102Z,93.07
2018-10-02T07:59:38.126Z,93.93
2018-10-02T08:02:07.669Z,92.58
2018-10-02T08:04:36.748Z,95.03
2018-10-02T08:07:06.206Z,95.16
2018-10-02T08:09:35.172Z,93.87
2018-10-02T08:12:04.521Z,96.54
2018-10-02T08:14:33.578Z,89.61
2018-10-02T08:17:03.041Z,91.27
2018-10-02T08:19:32.132Z,91.22
2018-10-02T08:22:01.132Z,89.52
2018-10-02T08:24:30.293Z,87.50
2018-10-02T08:26:59.309Z,88.77
2018-10-02T08:29:28.466Z,84.19
2018-10-02T08:31:57.358Z,84.96
2018-10-02T08:34:26.384Z,84.58
2018-10-02T08:36:55.490Z,84.92
2018-10-02T08:39:24.833Z,85.21
2018-10-02T08:41:54.002Z,88.51
2018-10-02T08:44:23.077Z,82.33
2018-10-02T08:46:52.118Z,80.78
2018-10-02T08:49:21.412Z,80.41
2018-10-02T08:51:51.300Z,80.85
2018-10-02T08:54:20.486Z,82.26
2018-10-02T08:56:49.485Z,83.47
2018-10-02T08:59:18.533Z,86.66
2018-10-02T09:01:47.610Z,91.44
2018-10-02T09:04:16.673Z,94.03
2018-10-02T09:06:45.969Z,92.59
2018-10-02T09:09:15.476Z,86.10
2018-10-02T09:11:44.536Z,81.56
2018-10-02T09:14:13.603Z,83.69
2018-10-02T09:16:42.685Z,83.39
2018-10-02T09:19:11.711Z,84.26
2018-10-02T09:21:41.088Z,87.36
2018-10-02T09:24:10.154Z,78.22
2018-10-02T09:26:39.133Z,69.77
2018-10-02T09:29:08.223Z,78.05
2018-10-02T09:31:42.562Z,71.88
2018-10-02T09:34:16.576Z,70.58
2018-10-02T09:36:50.631Z,65.06
2018-10-02T09:39:24.908Z,72.65
2018-10-02T09:41:58.889Z,67.34
2018-10-02T09:44:27.990Z,70.54
2018-10-02T09:46:58.064Z,74.31
2018-10-02T09:49:27.119Z,68.69
2018-10-02T09:51:56.200Z,72.61
2018-10-02T09:54:25.203Z,72.37
2018-10-02T09:56:54.290Z,70.63
2018-10-02T09:59:23.265Z,63.30
2018-10-02T10:01:57.479Z,62.39
2018-10-02T10:04:26.780Z,69.41
2018-10-02T10:06:55.796Z,74.34
2018-10-02T10:09:24.844Z,74.46
2018-10-02T10:11:53.942Z,75.49
2018-10-02T10:14:23.017Z,74.63
2018-10-02T10:16:52.129Z,67.25
2018-10-02T10:19:21.323Z,63.87
2018-10-02T10:21:50.424Z,62.85
2018-10-02T10:24:19.390Z,62.20
2018-10-02T10:26:49.264Z,63.54
2018-10-02T10:29:18.336Z,66.22
2018-10-02T10:31:47.356Z,59.04
2018-10-02T10:34:16.554Z,61.64
2018-10-02T10:36:45.522Z,62.90
2018-10-02T10:39:14.631Z,57.30
2018-10-02T10:41:43.729Z,59.55
2018-10-02T10:44:12.838Z,59.57
2018-10-02T10:46:41.987Z,59.91
2018-10-02T10:49:11.048Z,59.41
2018-10-02T10:51:40.158Z,59.17
2018-10-02T10:54:09.217Z,60.03
2018-10-02T10:56:38.379Z,61.98
2018-10-02T10:59:07.824Z,60.17
2018-10-02T11:01:36.841Z,57.05
2018-10-02T11:04:06.801Z,60.50
2018-10-02T11:06:35.885Z,58.02
2018-10-02T11:09:06.566Z,57.38
2018-10-02T11:11:35.682Z,59.64
2018-10-02T11:14:04.983Z,57.07
2018-10-02T11:16:34.027Z,60.53
2018-10-02T11:19:03.143Z,57.44
2018-10-02T11:21:32.143Z,57.86
2018-10-02T11:24:01.192Z,59.54
2018-10-02T11:26:30.228Z,65.32
2018-10-02T11:28:59.434Z,60.15
2018-10-02T11:31:28.540Z,61.34
2018-10-02T11:33:58.407Z,60.90
2018-10-02T11:36:28.193Z,61.73
2018-10-02T11:38:57.533Z,60.31
2018-10-02T11:41:27.346Z,56.85
2018-10-02T11:43:56.471Z,54.81
2018-10-02T11:46:25.660Z,60.89
2018-10-02T11:48:54.922Z,58.42
2018-10-02T11:51:24.161Z,57.40
2018-10-02T11:53:53.284Z,56.07
2018-10-02T11:56:22.348Z,56.76
2018-10-02T11:58:51.453Z,57.41
2018-10-02T12:01:20.689Z,54.56
2018-10-02T12:03:50.532Z,56.29
2018-10-02T12:06:19.642Z,53.21
2018-10-02T12:08:48.856Z,53.96
2018-10-02T12:11:17.953Z,52.66
2018-10-02T12:13:46.986Z,51.07
2018-10-02T12:16:16.047Z,52.74
2018-10-02T12:18:45.084Z,51.10
2018-10-02T12:21:14.131Z,51.09
2018-10-02T12:23:43.194Z,52.20
2018-10-02T12:26:12.347Z,51.66
2018-10-02T12:28:41.448Z,50.99
2018-10-02T12:31:11.786Z,50.96
2018-10-02T12:33:41.174Z,51.08
2018-10-02T12:36:12.148Z,50.70
2018-10-02T12:38:41.688Z,52.42
2018-10-02T12:41:10.833Z,51.17
2018-10-02T12:43:39.920Z,50.12
2018-10-02T12:46:09.366Z,49.51
2018-10-02T12:48:38.832Z,50.90
2018-10-02T12:51:09.548Z,51.13
2018-10-02T12:53:39.166Z,47.80
2018-10-02T12:56:08.448Z,48.37
2018-10-02T12:58:38.284Z,51.27
2018-10-02T13:01:07.896Z,48.85
2018-10-02T13:03:37.349Z,49.92
2018-10-02T13:06:06.415Z,50.89
2018-10-02T13:08:35.514Z,51.46
2018-10-02T13:11:04.676Z,50.04
2018-10-02T13:13:34.910Z,49.31
2018-10-02T13:16:04.123Z,50.55
2018-10-02T13:18:33.405Z,49.86
2018-10-02T13:21:02.503Z,49.76
2018-10-02T13:23:31.884Z,49.48
2018-10-02T13:26:01.424Z,49.03
2018-10-02T13:28:31.645Z,48.04
2018-10-02T13:31:01.043Z,49.23
2018-10-02T13:33:31.701Z,49.13
2018-10-02T13:36:00.802Z,48.41
2018-10-02T13:38:30.641Z,50.29
2018-10-02T13:41:00.445Z,49.59
2018-10-02T13:43:29.602Z,49.22
2018-10-02T13:45:59.091Z,49.51
2018-10-02T13:48:28.564Z,49.92
2018-10-02T13:50:58.461Z,49.64
2018-10-02T13:53:29.399Z,50.43
2018-10-02T13:55:58.820Z,49.17
2018-10-02T13:58:28.466Z,51.00
2018-10-02T14:00:57.916Z,51.00
2018-10-02T14:03:27.931Z,49.59
2018-10-02T14:05:58.381Z,52.60
2018-10-02T14:08:27.990Z,50.24
2018-10-02T14:10:59.417Z,48.54
2018-10-02T14:13:28.567Z,49.88
2018-10-02T14:15:57.710Z,51.21
2018-10-02T14:18:29.654Z,51.37
2018-10-02T14:20:58.956Z,51.26
2018-10-02T14:23:28.191Z,50.18
2018-10-02T14:25:57.408Z,51.18
2018-10-02T14:28:27.380Z,53.96
2018-10-02T14:30:57.935Z,51.53
2018-10-02T14:33:27.682Z,52.33
2018-10-02T14:35:57.559Z,52.47
2018-10-02T14:38:26.648Z,53.31
2018-10-02T14:40:56.326Z,51.34
2018-10-02T14:43:25.677Z,51.24
2018-10-02T14:45:55.378Z,51.13
2018-10-02T14:48:25.566Z,54.47
2018-10-02T14:50:55.256Z,54.73
2018-10-02T14:53:25.490Z,53.06
2018-10-02T14:55:54.939Z,50.72
2018-10-02T14:58:24.076Z,52.41
2018-10-02T15:00:53.435Z,51.03
2018-10-02T15:03:25.300Z,58.97
2018-10-02T15:05:55.903Z,58.26
2018-10-02T15:08:25.644Z,61.70
2018-10-02T15:10:54.795Z,63.62
2018-10-02T15:13:24.014Z,65.99
2018-10-02T15:15:53.753Z,59.88
2018-10-02T15:18:22.920Z,61.42
2018-10-02T15:20:53.036Z,65.19
2018-10-02T15:23:22.188Z,66.55
2018-10-02T15:25:51.243Z,67.61
2018-10-02T15:28:20.460Z,68.45
2018-10-02T15:30:49.697Z,71.94
2018-10-02T15:33:18.787Z,69.23
2018-10-02T15:35:48.532Z,67.76
2018-10-02T15:38:17.731Z,56.90
2018-10-02T15:40:47.773Z,61.15
2018-10-02T15:43:18.161Z,64.39
2018-10-02T15:45:47.764Z,58.90
2018-10-02T15:48:18.523Z,57.20
2018-10-02T15:50:50.509Z,61.32
2018-10-02T15:53:19.793Z,59.40
2018-10-02T15:55:49.992Z,58.30
2018-10-02T15:58:19.218Z,59.93
2018-10-02T16:00:48.898Z,58.71
2018-10-02T16:03:18.405Z,58.23
2018-10-02T16:05:48.640Z,59.16
2018-10-02T16:08:17.807Z,60.64
2018-10-02T16:10:47.139Z,60.57
2018-10-02T16:13:16.209Z,59.51
2018-10-02T16:15:45.365Z,61.48
2018-10-02T16:18:14.947Z,66.10
2018-10-02T16:20:45.511Z,62.85
2018-10-02T16:23:15.252Z,66.71
2018-10-02T16:25:44.434Z,69.67
2018-10-02T16:28:13.492Z,69.24
2018-10-02T16:30:42.627Z,69.04
2018-10-02T16:33:11.787Z,61.75
2018-10-02T16:35:41.045Z,59.81
2018-10-02T16:38:10.052Z,61.04
2018-10-02T16:40:39.158Z,68.11
2018-10-02T16:43:08.245Z,69.53
2018-10-02T16:45:37.437Z,67.14
2018-10-02T16:48:06.740Z,65.50
2018-10-02T16:50:35.850Z,63.34
2018-10-02T16:53:04.918Z,66.58
2018-10-02T16:55:34.846Z,64.00
2018-10-02T16:58:04.812Z,65.78
2018-10-02T17:00:34.429Z,67.54
2018-10-02T17:03:04.005Z,63.27
2018-10-02T17:05:33.684Z,61.95
2018-10-02T17:08:03.098Z,67.23
2018-10-02T17:10:34.027Z,68.72
2018-10-02T17:13:03.509Z,70.30
2018-10-02T17:15:33.092Z,70.06
2018-10-02T17:18:03.292Z,71.42
2018-10-02T17:20:32.923Z,71.25
2018-10-02T17:23:04.323Z,71.11
2018-10-02T17:25:36.888Z,72.03
2018-10-02T17:28:08.001Z,72.28
2018-10-02T17:30:38.425Z,73.64
2018-10-02T17:33:10.553Z,74.21
2018-10-02T17:35:40.147Z,73.48
2018-10-02T17:38:09.822Z,75.35
2018-10-02T17:40:39.595Z,74.40
2018-10-02T17:43:09.715Z,75.07
2018-10-02T17:45:40.654Z,74.50
2018-10-02T17:48:09.873Z,76.36
2018-10-02T17:50:41.423Z,77.80
2018-10-02T17:53:13.087Z,75.35
2018-10-02T17:55:42.366Z,76.42
2018-10-02T17:58:13.374Z,75.53
2018-10-02T18:00:43.660Z,78.86
2018-10-02T18:03:12.796Z,79.51
2018-10-02T18:05:42.230Z,77.96
2018-10-02T18:08:12.106Z,76.92
2018-10-02T18:10:42.240Z,76.66
2018-10-02T18:13:11.506Z,76.56
2018-10-02T18:15:42.642Z,78.73
2018-10-02T18:18:13.178Z,79.32
2018-10-02T18:20:44.073Z,78.22
2018-10-02T18:23:15.388Z,77.13
2018-10-02T18:25:46.556Z,79.16
2018-10-02T18:28:18.834Z,80.86
2018-10-02T18:30:51.901Z,77.98
2018-10-02T18:33:24.361Z,76.53
2018-10-02T18:35:56.581Z,77.92
2018-10-02T18:38:26.906Z,77.42
2018-10-02T18:40:56.401Z,79.14
2018-10-02T18:43:25.655Z,80.36
2018-10-02T18:45:57.593Z,81.28
2018-10-02T18:48:28.183Z,80.19
2018-10-02T18:50:59.378Z,81.65
2018-10-02T18:53:28.855Z,81.83
2018-10-02T18:55:58.200Z,79.69
2018-10-02T18:58:28.954Z,80.15
2018-10-02T19:00:59.459Z,81.97
2018-10-02T19:03:29.468Z,77.19
2018-10-02T19:06:00.019Z,74.71
2018-10-02T19:08:36.074Z,75.57
2018-10-02T19:11:10.440Z,79.64
2018-10-02T19:13:39.966Z,77.20
2018-10-02T19:16:14.431Z,78.57
2018-10-02T19:18:44.064Z,80.70
2018-10-02T19:21:14.349Z,81.17
2018-10-02T19:23:44.637Z,81.45
2018-10-02T19:26:21.112Z,81.54
2018-10-02T19:28:50.707Z,80.01
2018-10-02T19:31:25.173Z,83.03
2018-10-02T19:33:54.547Z,85.14
2018-10-02T19:36:24.119Z,84.55
2018-10-02T19:39:03.536Z,84.39
2018-10-02T19:41:33.412Z,84.46
2018-10-02T19:44:03.235Z,81.78
2018-10-02T19:46:40.498Z,81.31
2018-10-02T19:49:12.334Z,72.16
2018-10-02T19:51:46.700Z,77.14
2018-10-02T19:54:15.870Z,76.09
2018-10-02T19:56:44.950Z,78.21
2018-10-02T19:59:14.268Z,81.58
2018-10-02T20:01:43.362Z,80.79
2018-10-02T20:04:13.052Z,83.75
2018-10-02T20:06:42.122Z,84.52
2018-10-02T20:09:11.722Z,84.65
2018-10-02T20:11:41.087Z,83.28
2018-10-02T20:14:10.964Z,83.39
2018-10-02T20:16:40.334Z,85.22
2018-10-02T20:19:09.766Z,82.46
2018-10-02T20:21:38.939Z,83.98
2018-10-02T20:24:08.179Z,85.73
2018-10-02T20:26:37.319Z,82.60
2018-10-02T20:29:06.474Z,81.65
2018-10-02T20:31:39.382Z,85.68
2018-10-02T20:34:08.911Z,88.00
2018-10-02T20:36:38.142Z,88.61
2018-10-02T20:39:09.451Z,87.66
2018-10-02T20:41:38.578Z,86.71
2018-10-02T20:44:07.959Z,87.04
2018-10-02T20:46:37.174Z,89.06
2018-10-02T20:49:06.333Z,89.64
2018-10-02T20:51:36.323Z,89.02
2018-10-02T20:54:05.436Z,86.97
2018-10-02T20:56:34.588Z,87.71
2018-10-02T20:59:03.779Z,85.64
2018-10-02T21:01:32.891Z,86.02
2018-10-02T21:04:01.881Z,78.95
2018-10-02T21:06:30.987Z,69.17
2018-10-02T21:09:00.098Z,67.25
2018-10-02T21:11:29.175Z,65.62
2018-10-02T21:13:58.301Z,65.86
2018-10-02T21:16:27.357Z,65.76
2018-10-02T21:18:56.403Z,65.99
2018-10-02T21:21:25.420Z,65.89
2018-10-02T21:23:54.447Z,64.89
2018-10-02T21:26:23.487Z,67.17
2018-10-02T21:28:52.604Z,66.55
2018-10-02T21:31:21.775Z,65.14
2018-10-02T21:33:50.841Z,64.27
2018-10-02T21:36:19.934Z,64.64
2018-10-02T21:38:49.094Z,64.45
2018-10-02T21:41:18.123Z,65.17
2018-10-02T21:43:47.263Z,65.44
2018-10-02T21:46:17.563Z,64.35
2018-10-02T21:48:46.660Z,67.57
2018-10-02T21:51:15.697Z,66.45
2018-10-02T21:53:44.938Z,69.82
2018-10-02T21:56:13.916Z,74.15
2018-10-02T21:58:42.922Z,74.38
2018-10-02T22:01:12.047Z,71.82
2018-10-02T22:03:41.733Z,66.86
2018-10-02T22:06:10.766Z,66.86
2018-10-02T22:08:39.844Z,65.95
2018-10-02T22:11:09.438Z,67.28
2018-10-02T22:13:38.423Z,66.95
2018-10-02T22:16:07.615Z,69.09
2018-10-02T22:18:37.107Z,67.75
2018-10-02T22:21:06.303Z,66.25
2018-10-02T22:23:35.430Z,66.09
2018-10-02T22:26:05.428Z,67.46
2018-10-02T22:28:34.731Z,68.66
2018-10-02T22:31:03.920Z,69.20
2018-10-02T22:33:32.990Z,69.99
2018-10-02T22:36:01.979Z,69.14
2018-10-02T22:38:31.159Z,68.50
2018-10-02T22:41:00.165Z,69.80
2018-10-02T22:43:29.284Z,70.51
2018-10-02T22:45:58.253Z,70.66
2018-10-02T22:48:27.363Z,69.51
2018-10-02T22:50:56.353Z,71.67
2018-10-02T22:53:25.450Z,73.12
2018-10-02T22:55:54.442Z,71.31
2018-10-02T22:58:23.465Z,72.30
2018-10-02T23:00:52.446Z,74.40
2018-10-02T23:03:22.348Z,74.94
2018-10-02T23:05:51.419Z,75.94
2018-10-02T23:08:20.414Z,76.99
2018-10-02T23:10:49.413Z,77.26
2018-10-02T23:13:18.428Z,77.08
2018-10-02T23:15:47.380Z,77.82
2018-10-02T23:18:16.438Z,77.53
2018-10-02T23:20:45.625Z,78.61
2018-10-02T23:23:14.667Z,78.48
2018-10-02T23:25:43.749Z,78.97
2018-10-02T23:28:12.716Z,79.62
2018-10-02T23:30:41.747Z,78.00
2018-10-02T23:33:10.890Z,78.10
2018-10-02T23:35:39.847Z,78.84
2018-10-02T23:38:09.024Z,78.87
2018-10-02T23:40:38.051Z,78.33
2018-10-02T23:43:07.250Z,77.51
2018-10-02T23:45:36.582Z,76.30
2018-10-02T23:48:06.045Z,76.28
2018-10-02T23:50:35.503Z,76.12
2018-10-02T23:53:04.513Z,75.57
2018-10-02T23:55:33.752Z,77.59
2018-10-02T23:58:02.810Z,76.47
